^^
Station Historical Data
Daily Summary for February 8, 2018 Units:  English    Metric   Both
« Previous Day
Next Day »
Daily Weekly Monthly Yearly Custom
  High: Low: Average:
Temperature: TemperatureF °F 68.2 °F 74.4 °F
Dew Point: DewpointF °F 54.9 °F 55.4 °F
Humidity: Humidity% 42% 51%
Wind Speed: WindSpeedMPHmph -999.9mph -21.5mph
Wind Gust: WindSpeedGustMPHmph - -
Wind- -
Pressure: PressureIn in 29.54 in -
Precipitation: 0.02 in    
Historical Graphs
 
 
Tabular Data for February 8, 2018
Time Temperature Dew Point Pressure Wind Wind Speed Wind Gust Humidity Rainfall Rate (Hourly) solar Conditions
TemperatureF °F DewpointF °F PressureIn in Calm     Humidity% HourlyPrecipIn in SoftwareType W/m2 Conditions
08:17 68.2 °F 56.3 °F 29.61 in North -999.9 mph -999.0 mph 66% 0.00 in meteobridge W/m2
08:23 70.0 °F 55.9 °F 29.61 in SE 2.0 mph 2.0 mph 61% 0.00 in meteobridge W/m2
08:29 71.4 °F 56.3 °F 29.61 in NE 0.9 mph 1.0 mph 59% 0.00 in meteobridge W/m2
08:35 73.2 °F 56.1 °F 29.61 in ENE 0.9 mph 2.0 mph 55% 0.00 in meteobridge W/m2
08:41 74.3 °F 56.1 °F 29.62 in NW 6.0 mph 6.0 mph 53% 0.00 in meteobridge W/m2
08:47 73.8 °F 55.6 °F 29.62 in North 6.0 mph 9.0 mph 53% 0.00 in meteobridge W/m2
08:53 73.2 °F 55.6 °F 29.62 in NNE 6.0 mph 10.0 mph 54% 0.00 in meteobridge W/m2
08:59 72.9 °F 55.2 °F 29.62 in North 8.9 mph 12.0 mph 54% 0.00 in meteobridge W/m2
09:06 72.7 °F 55.0 °F 29.62 in NNE 4.9 mph 9.0 mph 54% 0.00 in meteobridge W/m2
09:12 72.9 °F 55.2 °F 29.62 in NNE 4.0 mph 6.0 mph 54% 0.00 in meteobridge W/m2
09:18 73.0 °F 55.4 °F 29.62 in NE 2.0 mph 11.0 mph 54% 0.00 in meteobridge W/m2
09:24 73.2 °F 55.0 °F 29.62 in NNE 6.0 mph 8.0 mph 53% 0.00 in meteobridge W/m2
09:30 73.4 °F 55.2 °F 29.62 in NNE 4.9 mph 8.0 mph 53% 0.00 in meteobridge W/m2
09:36 73.8 °F 55.0 °F 29.62 in North 4.0 mph 11.0 mph 52% 0.00 in meteobridge W/m2
09:42 74.5 °F 55.2 °F 29.62 in NNE 8.9 mph 13.0 mph 51% 0.00 in meteobridge W/m2
09:48 74.3 °F 55.0 °F 29.62 in NE 4.0 mph 12.0 mph 51% 0.00 in meteobridge W/m2
09:54 73.8 °F 55.0 °F 29.61 in NE 6.0 mph 11.0 mph 52% 0.00 in meteobridge W/m2
10:00 73.6 °F 54.9 °F 29.61 in NE 6.9 mph 11.0 mph 52% 0.00 in meteobridge W/m2
10:06 73.6 °F 55.4 °F 29.61 in ENE 8.9 mph 11.0 mph 53% 0.00 in meteobridge W/m2
10:13 74.5 °F 56.3 °F 29.61 in North 6.9 mph 7.0 mph 53% 0.00 in meteobridge W/m2
10:19 75.4 °F 55.9 °F 29.61 in ENE 2.0 mph 5.0 mph 51% 0.00 in meteobridge W/m2
10:25 76.5 °F 55.9 °F 29.61 in East 2.0 mph 4.0 mph 49% 0.00 in meteobridge W/m2
10:31 76.8 °F 56.3 °F 29.61 in NE 2.0 mph 6.0 mph 49% 0.00 in meteobridge W/m2
10:37 76.8 °F 56.3 °F 29.61 in ENE 4.0 mph 10.0 mph 49% 0.00 in meteobridge W/m2
10:43 77.4 °F 56.1 °F 29.61 in NNE 4.9 mph 7.0 mph 48% 0.00 in meteobridge W/m2
10:49 77.7 °F 55.9 °F 29.60 in NE 8.9 mph 12.0 mph 47% 0.00 in meteobridge W/m2
10:56 77.5 °F 56.3 °F 29.61 in ENE 4.9 mph 12.0 mph 48% 0.00 in meteobridge W/m2
11:02 77.4 °F 56.1 °F 29.60 in Calm   4.0 mph 48% 0.00 in meteobridge W/m2
11:08 78.4 °F 55.9 °F 29.60 in NNE 11.0 mph 15.0 mph 46% 0.00 in meteobridge W/m2
11:14 77.5 °F 55.0 °F 29.60 in Calm   3.0 mph 46% 0.00 in meteobridge W/m2
11:20 78.6 °F 55.6 °F 29.60 in NW 6.9 mph 14.0 mph 45% 0.00 in meteobridge W/m2
11:26 78.6 °F 56.1 °F 29.59 in ESE 2.0 mph 5.0 mph 46% 0.00 in meteobridge W/m2
11:32 79.2 °F 55.4 °F 29.59 in NE 4.9 mph 11.0 mph 44% 0.00 in meteobridge W/m2
11:38 79.9 °F 55.9 °F 29.59 in North 6.9 mph 12.0 mph 44% 0.00 in meteobridge W/m2
11:44 79.9 °F 55.9 °F 29.59 in ENE 4.9 mph 15.0 mph 44% 0.00 in meteobridge W/m2
11:51 78.8 °F 55.6 °F 29.58 in NNE 4.0 mph 9.0 mph 45% 0.00 in meteobridge W/m2
11:57 79.2 °F 55.9 °F 29.58 in NNE 4.9 mph 12.0 mph 45% 0.00 in meteobridge W/m2
12:03 79.7 °F 55.9 °F 29.58 in East 4.0 mph 14.0 mph 44% 0.00 in meteobridge W/m2
12:09 81.1 °F 56.5 °F 29.58 in SSE 6.0 mph 10.0 mph 43% 0.00 in meteobridge W/m2
12:15 81.3 °F 56.1 °F 29.58 in ENE 4.9 mph 10.0 mph 42% 0.00 in meteobridge W/m2
12:21 81.1 °F 56.5 °F 29.58 in ENE 2.9 mph 9.0 mph 43% 0.00 in meteobridge W/m2
12:27 80.2 °F 56.3 °F 29.58 in SSW 6.9 mph 14.0 mph 44% 0.00 in meteobridge W/m2
12:33 79.2 °F 55.4 °F 29.57 in NNW 6.9 mph 11.0 mph 44% 0.00 in meteobridge W/m2
12:40 79.9 °F 55.9 °F 29.57 in Calm   3.0 mph 44% 0.00 in meteobridge W/m2
12:46 80.8 °F 56.1 °F 29.57 in SSE 2.9 mph 6.0 mph 43% 0.00 in meteobridge W/m2
12:52 79.3 °F 55.6 °F 29.57 in NE 6.9 mph 13.0 mph 44% 0.00 in meteobridge W/m2
12:58 79.7 °F 56.5 °F 29.56 in SSE 0.9 mph 12.0 mph 45% 0.00 in meteobridge W/m2
13:04 81.3 °F 56.7 °F 29.56 in NNE 16.1 mph 16.1 mph 43% 0.00 in meteobridge W/m2
13:10 80.2 °F 55.8 °F 29.56 in NE 8.9 mph 11.0 mph 43% 0.00 in meteobridge W/m2
13:16 79.3 °F 54.9 °F 29.56 in ENE 6.0 mph 10.0 mph 43% 0.00 in meteobridge W/m2
13:22 79.5 °F 55.8 °F 29.55 in NE 13.0 mph 13.0 mph 44% 0.00 in meteobridge W/m2
13:28 79.0 °F 55.2 °F 29.55 in SE 2.0 mph 11.0 mph 44% 0.00 in meteobridge W/m2
13:35 78.1 °F 57.4 °F 29.56 in NNE 0.9 mph 9.0 mph 49% 0.00 in meteobridge W/m2
13:41 76.6 °F 56.7 °F 29.54 in ESE 0.9 mph 4.0 mph 50% 0.00 in meteobridge W/m2
13:47 75.4 °F 58.6 °F 29.55 in Calm   5.0 mph 56% 0.00 in meteobridge W/m2
13:53 73.4 °F 56.7 °F 29.56 in Calm   7.0 mph 56% 0.01 in meteobridge W/m2
13:59 72.7 °F 60.6 °F 29.55 in NNE 0.9 mph 1.0 mph 66% 0.02 in meteobridge W/m2
14:05 71.8 °F 61.0 °F 29.55 in SE 4.0 mph 4.0 mph 69% 0.02 in meteobridge W/m2
14:12 71.4 °F 59.0 °F 29.55 in SSE 2.9 mph 4.0 mph 65% 0.02 in meteobridge W/m2
14:18 71.8 °F 59.0 °F 29.55 in South 4.0 mph 6.0 mph 64% 0.02 in meteobridge W/m2
14:24 72.1 °F 57.0 °F 29.55 in SSW 6.9 mph 9.0 mph 59% 0.02 in meteobridge W/m2
14:30 72.7 °F 56.5 °F 29.55 in South 4.0 mph 8.0 mph 57% 0.02 in meteobridge W/m2
14:36 73.0 °F 56.8 °F 29.55 in South 0.9 mph 4.0 mph 57% 0.02 in meteobridge W/m2
14:42 73.4 °F 56.7 °F 29.54 in South 2.9 mph 3.0 mph 56% 0.02 in meteobridge W/m2
14:48 73.6 °F 55.4 °F 29.55 in Calm   5.0 mph 53% 0.01 in meteobridge W/m2
14:54 73.8 °F 55.6 °F 29.55 in Calm   2.0 mph 53% 0.00 in meteobridge W/m2
15:00 73.8 °F 57.0 °F 29.55 in SSW 2.0 mph 3.0 mph 56% 0.00 in meteobridge W/m2
15:07 73.2 °F 56.1 °F 29.55 in South 4.0 mph 5.0 mph 55% 0.00 in meteobridge W/m2
15:13 72.9 °F 56.7 °F 29.55 in South 4.9 mph 6.0 mph 57% 0.00 in meteobridge W/m2
15:19 72.1 °F 56.5 °F 29.55 in South 4.9 mph 6.0 mph 58% 0.00 in meteobridge W/m2
15:25 71.8 °F 56.1 °F 29.55 in Calm   6.0 mph 58% 0.00 in meteobridge W/m2
15:31 71.4 °F 56.3 °F 29.56 in SSE 6.9 mph 7.0 mph 59% 0.00 in meteobridge W/m2
15:37 70.9 °F 56.8 °F 29.56 in South 4.9 mph 12.0 mph 61% 0.00 in meteobridge W/m2
15:43 70.2 °F 56.1 °F 29.55 in South 4.0 mph 5.0 mph 61% 0.00 in meteobridge W/m2
15:49 69.8 °F 55.2 °F 29.55 in Calm     60% 0.00 in meteobridge W/m2
15:56 69.8 °F 55.2 °F 29.54 in Calm   -999.0 mph 60% 0.00 in meteobridge W/m2
16:02 69.8 °F 55.2 °F 29.56 in North -999.9 mph -999.0 mph 60% 0.00 in meteobridge W/m2
Regenstein, Windhoek, Namibia
Compliments of Weather Underground - 2.5 mb